Accueil
METAR-TAF:

METAR-TAF

Aéroports :

Woensdrecht, Pays-Bas

latitude: 51-27N, longitude: 004-20E, altitude: 20 m

Observation

Le bulletin a été fait il y a 15 minutes, à 13:25 UTC
Vent 7 kt de ouest/nord-ouest, variant entre sud-ouest et nord
Température 22°C
Humidité 60%
Pression 1024 hPa
Visibilité 10 km ou plus

METAR: EHWO 221325Z AUTO 29007KT 230V010 9999 NCD 22/14 Q1024 BLU

Heure: 15:40 (13:40 UTC)

Prévision

Le bulletin a été fait il y a 4 heures et 54 minutes, à 08:46 UTC
Prévision valable du 22 à 09 UTC au 22 à 21 UTC
Vent 6 kt de ouest
Visibilité 10 km ou plus
pas de nuages en-dessous de 1500 mètres et pas de cumulonimbus.
Evoluant progressivement
du 22 à 18 UTC au 22 à 21 UTC
Vent 2 kt de direction variable

TAF: EHWO 220846Z 2209/2221 28006KT CAVOK BECMG 2218/2221 VRB02KT

Observations et prévisions météorologiques de plus de 4000 aéroports (messages METAR et TAF).

Les stations disponibles sont représentées par des disques jaunes et rouges sur la carte.

Passer la souris dessus pour voir le nom de la station.

Cliquer dessus pour voir les observations et prévisions météorologiques.

Pour changer de carte: cliquez sur les boutons verts avec une croix noire pour zoomer, sur le bouton vert avec un tiret pour effectuer un zoom arrière, ou sur les flèches vertes pour les cartes adjacentes.


METAR-TAF: